createdAt,value
2022-09-13T00:00:55.433Z,17.60
2022-09-13T00:03:24.399Z,17.60
2022-09-13T00:05:52.712Z,17.60
2022-09-13T00:08:22.373Z,17.50
2022-09-13T00:10:51.361Z,17.50
2022-09-13T00:13:19.784Z,17.50
2022-09-13T00:15:50.107Z,17.50
2022-09-13T00:18:19.896Z,17.40
2022-09-13T00:20:48.339Z,17.40
2022-09-13T00:23:16.582Z,17.40
2022-09-13T00:25:46.183Z,17.30
2022-09-13T00:28:14.539Z,17.30
2022-09-13T00:30:42.786Z,17.20
2022-09-13T00:33:10.966Z,17.20
2022-09-13T00:35:40.029Z,17.20
2022-09-13T00:38:08.321Z,17.10
2022-09-13T00:40:39.281Z,17.10
2022-09-13T00:43:17.474Z,17.10
2022-09-13T00:45:46.257Z,17.10
2022-09-13T00:48:22.022Z,17.00
2022-09-13T00:50:53.975Z,17.00
2022-09-13T00:53:27.040Z,17.00
2022-09-13T00:55:59.201Z,16.90
2022-09-13T00:58:33.463Z,16.90
2022-09-13T01:01:03.622Z,16.90
2022-09-13T01:03:34.965Z,16.90
2022-09-13T01:06:09.130Z,16.90
2022-09-13T01:08:39.287Z,16.80
2022-09-13T01:11:11.971Z,16.80
2022-09-13T01:13:42.637Z,16.80
2022-09-13T01:16:11.157Z,16.80
2022-09-13T01:18:39.549Z,16.80
2022-09-13T01:21:41.033Z,16.70
2022-09-13T01:24:45.055Z,16.70
2022-09-13T01:27:29.952Z,16.60
2022-09-13T01:30:14.746Z,16.60
2022-09-13T01:33:21.547Z,16.60
2022-09-13T01:36:06.055Z,16.70
2022-09-13T01:38:45.534Z,16.50
2022-09-13T01:41:26.592Z,16.50
2022-09-13T01:44:00.582Z,16.60
2022-09-13T01:46:39.773Z,16.60
2022-09-13T01:49:16.571Z,16.60
2022-09-13T01:51:49.846Z,16.60
2022-09-13T01:54:21.829Z,16.60
2022-09-13T01:56:59.396Z,16.60
2022-09-13T01:59:38.319Z,16.60
2022-09-13T02:02:14.980Z,16.60
2022-09-13T02:04:46.910Z,16.60
2022-09-13T02:07:20.972Z,16.60
2022-09-13T02:09:53.227Z,16.60
2022-09-13T02:12:24.756Z,16.60
2022-09-13T02:14:57.421Z,16.60
2022-09-13T02:17:32.102Z,16.60
2022-09-13T02:20:02.394Z,16.40
2022-09-13T02:22:34.296Z,16.40
2022-09-13T02:25:08.108Z,16.40
2022-09-13T02:27:38.779Z,16.30
2022-09-13T02:30:10.331Z,16.30
2022-09-13T02:32:43.078Z,16.30
2022-09-13T02:35:17.193Z,16.30
2022-09-13T02:37:49.851Z,16.30
2022-09-13T02:40:22.178Z,16.30
2022-09-13T02:42:56.924Z,16.30
2022-09-13T02:45:33.310Z,16.30
2022-09-13T02:48:11.386Z,16.20
2022-09-13T02:50:50.727Z,16.30
2022-09-13T02:53:27.267Z,16.20
2022-09-13T02:56:04.923Z,16.20
2022-09-13T02:58:41.028Z,16.20
2022-09-13T03:01:10.808Z,16.20
2022-09-13T03:03:40.511Z,16.20
2022-09-13T03:06:08.942Z,16.10
2022-09-13T03:08:37.955Z,16.10
2022-09-13T03:11:14.818Z,16.10
2022-09-13T03:13:56.864Z,16.00
2022-09-13T03:16:44.356Z,16.00
2022-09-13T03:19:30.252Z,16.00
2022-09-13T03:22:15.596Z,16.00
2022-09-13T03:24:54.195Z,16.00
2022-09-13T03:27:30.103Z,16.00
2022-09-13T03:30:04.335Z,16.00
2022-09-13T03:32:42.362Z,16.00
2022-09-13T03:35:23.933Z,15.90
2022-09-13T03:37:58.397Z,15.90
2022-09-13T03:40:36.593Z,15.90
2022-09-13T03:43:09.573Z,15.90
2022-09-13T03:45:42.255Z,15.90
2022-09-13T03:48:12.827Z,15.90
2022-09-13T03:50:43.313Z,15.90
2022-09-13T03:53:13.652Z,15.90
2022-09-13T03:55:44.166Z,15.90
2022-09-13T03:58:14.300Z,15.80
2022-09-13T04:00:42.443Z,15.90
2022-09-13T04:03:11.110Z,15.80
2022-09-13T04:05:39.227Z,15.80
2022-09-13T04:08:09.918Z,15.80
2022-09-13T04:10:38.707Z,15.80
2022-09-13T04:13:06.865Z,15.70
2022-09-13T04:15:34.971Z,15.80
2022-09-13T04:18:03.101Z,15.80
2022-09-13T04:20:31.231Z,15.80
2022-09-13T04:22:59.671Z,15.70
2022-09-13T04:25:29.750Z,15.70
2022-09-13T04:28:00.007Z,15.70
2022-09-13T04:30:28.724Z,15.70
2022-09-13T04:32:59.585Z,15.70
2022-09-13T04:35:28.919Z,15.70
2022-09-13T04:37:58.170Z,15.70
2022-09-13T04:40:26.556Z,15.70
2022-09-13T04:42:56.127Z,15.50
2022-09-13T04:45:24.602Z,15.60
2022-09-13T04:47:53.925Z,15.60
2022-09-13T04:50:22.903Z,15.60
2022-09-13T04:52:52.021Z,15.60
2022-09-13T04:55:20.256Z,15.60
2022-09-13T04:57:48.661Z,15.60
2022-09-13T05:00:18.876Z,15.60
2022-09-13T05:02:47.040Z,15.60
2022-09-13T05:05:15.835Z,15.60
2022-09-13T05:07:43.977Z,15.60
2022-09-13T05:10:14.262Z,15.60
2022-09-13T05:12:45.787Z,15.60
2022-09-13T05:15:14.105Z,15.50
2022-09-13T05:17:43.672Z,15.50
2022-09-13T05:20:12.947Z,15.50
2022-09-13T05:22:41.327Z,15.50
2022-09-13T05:25:10.233Z,15.50
2022-09-13T05:27:38.417Z,15.30
2022-09-13T05:30:07.921Z,15.40
2022-09-13T05:32:36.114Z,15.40
2022-09-13T05:35:06.376Z,15.40
2022-09-13T05:37:34.627Z,15.40
2022-09-13T05:40:11.992Z,15.50
2022-09-13T05:42:40.969Z,15.50
2022-09-13T05:45:10.451Z,15.50
2022-09-13T05:47:38.854Z,15.50
2022-09-13T05:50:15.864Z,15.50
2022-09-13T05:52:53.251Z,15.50
2022-09-13T05:55:23.083Z,15.50
2022-09-13T05:57:51.404Z,15.50
2022-09-13T06:00:19.988Z,15.60
2022-09-13T06:02:48.222Z,15.60
2022-09-13T06:05:18.074Z,15.60
2022-09-13T06:07:46.648Z,15.60
2022-09-13T06:10:15.003Z,15.60
2022-09-13T06:12:43.312Z,15.70
2022-09-13T06:15:11.864Z,15.70
2022-09-13T06:17:40.155Z,15.70
2022-09-13T06:20:09.553Z,15.70
2022-09-13T06:22:39.535Z,15.70
2022-09-13T06:25:09.591Z,15.80
2022-09-13T06:27:37.754Z,15.80
2022-09-13T06:30:08.982Z,15.80
2022-09-13T06:32:37.411Z,15.80
2022-09-13T06:35:06.115Z,15.90
2022-09-13T06:37:34.292Z,15.90
2022-09-13T06:40:05.250Z,16.00
2022-09-13T06:42:35.502Z,16.10
2022-09-13T06:45:03.976Z,16.10
2022-09-13T06:47:32.303Z,16.00
2022-09-13T06:50:01.048Z,15.90
2022-09-13T06:52:29.335Z,15.90
2022-09-13T06:54:57.400Z,15.90
2022-09-13T06:57:27.851Z,15.90
2022-09-13T06:59:55.940Z,15.90
2022-09-13T07:02:25.073Z,16.00
2022-09-13T07:04:53.272Z,16.10
2022-09-13T07:07:21.529Z,16.20
2022-09-13T07:09:49.925Z,16.20
2022-09-13T07:12:20.553Z,16.20
2022-09-13T07:14:51.128Z,16.30
2022-09-13T07:17:19.724Z,16.40
2022-09-13T07:19:48.260Z,16.40
2022-09-13T07:22:17.419Z,16.50
2022-09-13T07:24:45.582Z,16.60
2022-09-13T07:27:14.867Z,16.70
2022-09-13T07:29:44.031Z,16.70
2022-09-13T07:32:13.568Z,16.80
2022-09-13T07:34:41.851Z,16.90
2022-09-13T07:37:09.999Z,16.90
2022-09-13T07:39:38.386Z,17.10
2022-09-13T07:42:06.723Z,17.10
2022-09-13T07:44:35.044Z,17.20
2022-09-13T07:47:03.160Z,17.30
2022-09-13T07:49:33.121Z,17.40
2022-09-13T07:52:01.260Z,17.50
2022-09-13T07:54:30.247Z,17.50
2022-09-13T07:56:58.433Z,17.70
2022-09-13T07:59:30.094Z,17.80
2022-09-13T08:01:58.571Z,17.90
2022-09-13T08:04:27.354Z,18.00
2022-09-13T08:06:57.092Z,18.20
2022-09-13T08:09:25.429Z,18.20
2022-09-13T08:11:54.190Z,18.30
2022-09-13T08:14:24.174Z,18.30
2022-09-13T08:16:55.698Z,18.50
2022-09-13T08:19:23.786Z,18.50
2022-09-13T08:21:52.058Z,18.50
2022-09-13T08:24:23.056Z,18.70
2022-09-13T08:26:52.218Z,19.00
2022-09-13T08:29:20.650Z,19.10
2022-09-13T08:31:48.801Z,19.20
2022-09-13T08:34:18.286Z,19.40
2022-09-13T08:36:46.578Z,19.70
2022-09-13T08:39:14.752Z,19.90
2022-09-13T08:42:20.187Z,20.10
2022-09-13T08:44:51.545Z,20.10
2022-09-13T08:47:36.727Z,20.10
2022-09-13T08:50:14.503Z,20.10
2022-09-13T08:52:55.835Z,20.00
2022-09-13T08:55:31.516Z,20.00
2022-09-13T08:58:10.293Z,20.10
2022-09-13T09:00:41.219Z,20.20
2022-09-13T09:03:23.371Z,20.20
2022-09-13T09:05:53.049Z,20.30
2022-09-13T09:08:34.123Z,20.30
2022-09-13T09:11:08.934Z,20.30
2022-09-13T09:13:43.790Z,20.50
2022-09-13T09:16:21.973Z,20.70
2022-09-13T09:18:51.387Z,20.80
2022-09-13T09:21:20.400Z,20.80
2022-09-13T09:23:52.524Z,20.90
2022-09-13T09:26:22.684Z,20.80
2022-09-13T09:28:56.820Z,20.90
2022-09-13T09:31:33.447Z,21.10
2022-09-13T09:34:13.367Z,21.30
2022-09-13T09:36:46.262Z,21.30
2022-09-13T09:39:16.489Z,21.30
2022-09-13T09:41:45.793Z,21.50
2022-09-13T09:44:20.332Z,21.40
2022-09-13T09:46:52.106Z,21.40
2022-09-13T09:49:42.948Z,21.50
2022-09-13T09:52:14.677Z,21.80
2022-09-13T09:54:42.879Z,22.10
2022-09-13T09:57:11.533Z,22.20
2022-09-13T09:59:41.031Z,22.30
2022-09-13T10:02:18.750Z,22.50
2022-09-13T10:04:57.386Z,22.70
2022-09-13T10:07:32.922Z,23.00
2022-09-13T10:10:04.527Z,23.10
2022-09-13T10:12:35.413Z,23.00
2022-09-13T10:15:17.956Z,22.90
2022-09-13T10:18:03.172Z,22.90
2022-09-13T10:20:31.831Z,22.70
2022-09-13T10:23:12.763Z,22.80
2022-09-13T10:25:44.814Z,22.90
2022-09-13T10:28:18.930Z,23.00
2022-09-13T10:30:54.532Z,23.00
2022-09-13T10:33:30.640Z,23.10
2022-09-13T10:36:03.019Z,23.20
2022-09-13T10:38:35.366Z,23.50
2022-09-13T10:41:07.219Z,23.50
2022-09-13T10:43:36.063Z,23.50
2022-09-13T10:46:13.767Z,23.50
2022-09-13T10:48:47.696Z,23.60
2022-09-13T10:51:38.176Z,23.70
2022-09-13T10:54:21.237Z,23.70
2022-09-13T10:56:50.845Z,23.80
2022-09-13T10:59:23.695Z,24.00
2022-09-13T11:02:13.891Z,24.20
2022-09-13T11:04:57.987Z,24.30
2022-09-13T11:08:01.175Z,24.50
2022-09-13T11:10:36.198Z,24.50
2022-09-13T11:13:11.811Z,24.50
2022-09-13T11:15:51.643Z,24.50
2022-09-13T11:18:41.972Z,24.50
2022-09-13T11:21:24.902Z,24.70
2022-09-13T11:24:14.137Z,24.90
2022-09-13T11:26:57.359Z,25.00
2022-09-13T11:29:35.765Z,25.30
2022-09-13T11:32:14.144Z,25.30
2022-09-13T11:34:54.680Z,25.50
2022-09-13T11:37:43.031Z,25.50
2022-09-13T11:40:30.957Z,25.50
2022-09-13T11:43:13.263Z,25.50
2022-09-13T11:45:49.491Z,25.70
2022-09-13T11:48:34.295Z,25.80
2022-09-13T11:51:12.520Z,25.80
2022-09-13T11:54:03.754Z,25.70
2022-09-13T11:56:36.799Z,25.80
2022-09-13T11:59:17.165Z,25.80
2022-09-13T12:01:50.687Z,25.80
2022-09-13T12:04:25.413Z,25.80
2022-09-13T12:07:00.379Z,25.90
2022-09-13T12:09:33.397Z,26.10
2022-09-13T12:12:06.911Z,26.10
2022-09-13T12:14:46.638Z,26.10
2022-09-13T12:17:25.390Z,26.20
2022-09-13T12:19:55.515Z,26.30
2022-09-13T12:22:30.848Z,26.20
2022-09-13T12:25:03.986Z,26.10
2022-09-13T12:27:40.353Z,26.00
2022-09-13T12:30:16.188Z,26.00
2022-09-13T12:32:46.199Z,26.00
2022-09-13T12:35:22.911Z,26.00
2022-09-13T12:38:33.977Z,26.00
2022-09-13T12:41:19.295Z,26.00
2022-09-13T12:44:31.687Z,25.90
2022-09-13T12:47:32.566Z,25.90
2022-09-13T12:53:32.711Z,25.90
2022-09-13T12:56:19.152Z,25.90
2022-09-13T12:59:16.929Z,25.90
2022-09-13T13:01:48.857Z,26.00
2022-09-13T13:04:20.051Z,26.00
2022-09-13T13:06:55.274Z,26.00
2022-09-13T13:09:32.327Z,26.20
2022-09-13T13:12:00.828Z,26.20
2022-09-13T13:14:48.440Z,26.20
2022-09-13T13:17:36.669Z,26.20
2022-09-13T13:20:38.234Z,26.20
2022-09-13T13:23:27.269Z,26.30
2022-09-13T13:26:12.159Z,26.50
2022-09-13T13:29:09.603Z,26.50
2022-09-13T13:31:40.603Z,26.70
2022-09-13T13:34:32.491Z,26.80
2022-09-13T13:37:04.215Z,26.70
2022-09-13T13:39:38.939Z,26.80
2022-09-13T13:42:26.477Z,26.70
2022-09-13T13:45:07.859Z,26.70
2022-09-13T13:47:54.790Z,26.80
2022-09-13T13:50:23.232Z,26.90
2022-09-13T13:53:05.630Z,27.00
2022-09-13T13:55:46.863Z,27.00
2022-09-13T13:58:32.244Z,27.10
2022-09-13T14:01:02.808Z,27.30
2022-09-13T14:03:51.262Z,27.40
2022-09-13T14:06:29.583Z,27.50
2022-09-13T14:09:09.893Z,27.50
2022-09-13T14:11:51.347Z,27.50
2022-09-13T14:14:34.451Z,27.60
2022-09-13T14:17:48.171Z,27.60
2022-09-13T14:20:18.487Z,27.70
2022-09-13T14:22:47.004Z,27.80
2022-09-13T14:25:23.546Z,27.70
2022-09-13T14:27:55.360Z,27.60
2022-09-13T14:30:28.118Z,27.70
2022-09-13T14:32:58.499Z,27.60
2022-09-13T14:35:29.954Z,27.60
2022-09-13T14:38:10.875Z,27.50
2022-09-13T14:40:39.555Z,27.50
2022-09-13T14:43:16.602Z,27.40
2022-09-13T14:45:50.296Z,27.30
2022-09-13T14:48:23.131Z,27.40
2022-09-13T14:50:55.890Z,27.40
2022-09-13T14:53:28.468Z,27.40
2022-09-13T14:56:00.825Z,27.30
2022-09-13T14:58:34.787Z,27.30
2022-09-13T15:01:08.360Z,27.30
2022-09-13T15:03:36.898Z,27.30
2022-09-13T15:06:06.692Z,27.20
2022-09-13T15:08:48.281Z,27.20
2022-09-13T15:11:27.409Z,27.10
2022-09-13T15:14:18.279Z,27.10
2022-09-13T15:16:52.895Z,27.10
2022-09-13T15:19:41.890Z,27.00
2022-09-13T15:22:25.810Z,26.90
2022-09-13T15:24:56.316Z,26.90
2022-09-13T15:27:27.703Z,26.80
2022-09-13T15:29:57.913Z,26.80
2022-09-13T15:32:37.845Z,26.80
2022-09-13T15:35:19.567Z,26.80
2022-09-13T15:37:48.064Z,26.80
2022-09-13T15:40:20.154Z,26.70
2022-09-13T15:42:50.080Z,26.60
2022-09-13T15:45:19.795Z,26.60
2022-09-13T15:47:51.989Z,26.60
2022-09-13T15:50:25.027Z,26.50
2022-09-13T15:52:53.303Z,26.50
2022-09-13T15:55:22.117Z,26.60
2022-09-13T15:57:50.327Z,26.60
2022-09-13T16:00:20.981Z,26.60
2022-09-13T16:02:51.778Z,26.70
2022-09-13T16:05:21.276Z,26.70
2022-09-13T16:07:49.613Z,26.60
2022-09-13T16:10:20.340Z,26.60
2022-09-13T16:12:48.704Z,26.70
2022-09-13T16:15:17.211Z,26.60
2022-09-13T16:17:45.620Z,26.60
2022-09-13T16:20:17.269Z,26.60
2022-09-13T16:22:45.590Z,26.50
2022-09-13T16:25:14.779Z,26.50
2022-09-13T16:27:45.038Z,26.40
2022-09-13T16:30:15.059Z,26.30
2022-09-13T16:32:44.011Z,26.20
2022-09-13T16:35:13.428Z,26.20
2022-09-13T16:37:44.352Z,26.20
2022-09-13T16:40:13.733Z,26.30
2022-09-13T16:42:42.014Z,26.40
2022-09-13T16:45:11.867Z,26.50
2022-09-13T16:47:41.359Z,26.60
2022-09-13T16:50:10.842Z,26.60
2022-09-13T16:52:39.534Z,26.30
2022-09-13T16:55:10.893Z,26.20
2022-09-13T16:57:39.166Z,26.20
2022-09-13T17:00:11.566Z,26.40
2022-09-13T17:02:40.151Z,26.40
2022-09-13T17:05:11.183Z,26.50
2022-09-13T17:07:40.083Z,26.50
2022-09-13T17:10:12.662Z,26.30
2022-09-13T17:12:41.720Z,26.20
2022-09-13T17:15:10.736Z,26.30
2022-09-13T17:17:38.915Z,26.30
2022-09-13T17:20:10.836Z,26.40
2022-09-13T17:22:39.384Z,26.40
2022-09-13T17:25:10.170Z,26.40
2022-09-13T17:27:38.406Z,26.40
2022-09-13T17:30:08.183Z,26.40
2022-09-13T17:32:36.330Z,26.30
2022-09-13T17:35:04.661Z,26.30
2022-09-13T17:37:32.964Z,26.20
2022-09-13T17:40:01.345Z,26.20
2022-09-13T17:42:31.366Z,26.20
2022-09-13T17:44:59.895Z,26.20
2022-09-13T17:47:28.350Z,26.10
2022-09-13T17:49:56.642Z,26.10
2022-09-13T17:52:24.988Z,26.00
2022-09-13T17:54:54.101Z,26.00
2022-09-13T17:57:22.337Z,25.90
2022-09-13T17:59:52.897Z,25.60
2022-09-13T18:02:21.862Z,25.40
2022-09-13T18:04:52.072Z,25.40
2022-09-13T18:07:20.843Z,25.10
2022-09-13T18:09:49.160Z,25.30
2022-09-13T18:12:17.368Z,25.40
2022-09-13T18:14:45.744Z,25.40
2022-09-13T18:17:15.896Z,25.40
2022-09-13T18:19:46.815Z,25.40
2022-09-13T18:22:15.894Z,25.30
2022-09-13T18:24:44.389Z,25.30
2022-09-13T18:27:12.523Z,25.30
2022-09-13T18:29:40.772Z,25.30
2022-09-13T18:32:08.979Z,25.20
2022-09-13T18:34:38.931Z,25.10
2022-09-13T18:37:07.114Z,25.00
2022-09-13T18:39:35.856Z,24.90
2022-09-13T18:42:04.254Z,24.40
2022-09-13T18:44:34.148Z,24.60
2022-09-13T18:47:03.972Z,24.60
2022-09-13T18:49:32.850Z,24.70
2022-09-13T18:52:02.720Z,24.70
2022-09-13T18:54:30.964Z,24.70
2022-09-13T18:56:59.534Z,24.70
2022-09-13T18:59:30.204Z,24.70
2022-09-13T19:01:58.580Z,24.70
2022-09-13T19:04:26.932Z,24.70
2022-09-13T19:06:56.907Z,24.60
2022-09-13T19:09:26.999Z,24.60
2022-09-13T19:11:55.680Z,24.60
2022-09-13T19:14:27.209Z,24.60
2022-09-13T19:16:57.633Z,24.60
2022-09-13T19:19:25.863Z,24.50
2022-09-13T19:21:54.002Z,24.50
2022-09-13T19:24:22.460Z,24.50
2022-09-13T19:26:53.469Z,24.50
2022-09-13T19:29:23.679Z,24.50
2022-09-13T19:31:53.239Z,24.50
2022-09-13T19:34:23.351Z,24.50
2022-09-13T19:36:57.816Z,24.40
2022-09-13T19:39:29.667Z,24.40
2022-09-13T19:42:00.896Z,24.40
2022-09-13T19:44:29.411Z,24.40
2022-09-13T19:47:36.132Z,24.30
2022-09-13T19:49:46.158Z,24.30
2022-09-13T19:52:14.405Z,23.90
2022-09-13T19:54:42.656Z,24.00
2022-09-13T19:57:13.144Z,24.00
2022-09-13T19:59:41.979Z,24.10
2022-09-13T20:02:11.050Z,24.10
2022-09-13T20:04:39.275Z,24.10
2022-09-13T20:07:12.006Z,24.10
2022-09-13T20:09:42.245Z,23.70
2022-09-13T20:12:12.622Z,23.80
2022-09-13T20:14:41.031Z,23.90
2022-09-13T20:17:09.748Z,24.00
2022-09-13T20:19:45.134Z,24.00
2022-09-13T20:22:17.499Z,24.00
2022-09-13T20:24:45.970Z,24.00
2022-09-13T20:27:16.259Z,23.90
2022-09-13T20:29:44.576Z,23.90
2022-09-13T20:32:12.767Z,23.90
2022-09-13T20:34:41.028Z,23.90
2022-09-13T20:37:09.542Z,24.00
2022-09-13T20:39:37.780Z,23.90
2022-09-13T20:42:06.413Z,23.90
2022-09-13T20:44:36.144Z,23.90
2022-09-13T20:47:05.361Z,23.80
2022-09-13T20:49:33.955Z,23.80
2022-09-13T20:52:02.301Z,23.70
2022-09-13T20:54:30.718Z,23.60
2022-09-13T20:56:59.214Z,23.60
2022-09-13T20:59:27.743Z,23.60
2022-09-13T21:01:57.801Z,23.50
2022-09-13T21:04:26.258Z,23.60
2022-09-13T21:07:14.657Z,23.60
2022-09-13T21:09:43.414Z,23.50
2022-09-13T21:12:11.759Z,23.50
2022-09-13T21:14:40.071Z,23.50
2022-09-13T21:17:09.857Z,23.30
2022-09-13T21:19:38.363Z,22.70
2022-09-13T21:22:06.660Z,22.50
2022-09-13T21:24:34.909Z,22.50
2022-09-13T21:27:03.538Z,22.70
2022-09-13T21:29:31.714Z,22.90
2022-09-13T21:32:00.098Z,23.00
2022-09-13T21:34:30.308Z,23.00
2022-09-13T21:36:58.652Z,23.10
2022-09-13T21:39:27.280Z,23.20
2022-09-13T21:41:56.811Z,23.20
2022-09-13T21:44:25.801Z,23.20
2022-09-13T21:46:54.499Z,23.20
2022-09-13T21:49:23.203Z,23.20
2022-09-13T21:51:54.105Z,23.20
2022-09-13T21:54:22.860Z,23.20
2022-09-13T21:56:53.977Z,23.20
2022-09-13T21:59:24.123Z,23.10
2022-09-13T22:01:54.172Z,22.90
2022-09-13T22:04:27.462Z,23.00
2022-09-13T22:06:58.496Z,23.00
2022-09-13T22:09:28.233Z,23.00
2022-09-13T22:11:58.553Z,23.00
2022-09-13T22:14:26.818Z,23.10
2022-09-13T22:16:55.738Z,23.10
2022-09-13T22:19:26.252Z,23.10
2022-09-13T22:21:59.098Z,22.90
2022-09-13T22:24:29.502Z,23.00
2022-09-13T22:26:59.288Z,22.90
2022-09-13T22:29:27.983Z,22.90
2022-09-13T22:31:56.476Z,23.00
2022-09-13T22:34:26.234Z,22.70
2022-09-13T22:37:01.163Z,22.70
2022-09-13T22:39:31.681Z,22.60
2022-09-13T22:42:01.686Z,22.50
2022-09-13T22:44:35.852Z,22.30
2022-09-13T22:47:06.099Z,22.00
2022-09-13T22:49:35.164Z,21.90
2022-09-13T22:52:03.903Z,21.80
2022-09-13T22:54:34.496Z,21.80
2022-09-13T22:57:03.221Z,21.70
2022-09-13T22:59:31.682Z,21.80
2022-09-13T23:02:00.154Z,21.80
2022-09-13T23:04:28.718Z,22.00
2022-09-13T23:06:57.073Z,22.10
2022-09-13T23:09:25.797Z,22.00
2022-09-13T23:11:55.877Z,21.70
2022-09-13T23:14:24.705Z,21.90
2022-09-13T23:16:55.086Z,21.90
2022-09-13T23:19:25.915Z,22.00
2022-09-13T23:21:54.810Z,22.20
2022-09-13T23:24:24.408Z,21.90
2022-09-13T23:26:58.026Z,21.90
2022-09-13T23:29:26.307Z,21.80
2022-09-13T23:31:54.851Z,21.90
2022-09-13T23:34:23.632Z,22.10
2022-09-13T23:36:52.495Z,22.30
2022-09-13T23:39:22.041Z,22.40
2022-09-13T23:41:51.810Z,22.40
2022-09-13T23:44:21.695Z,22.50
2022-09-13T23:46:51.195Z,22.50
2022-09-13T23:49:19.532Z,22.50
2022-09-13T23:51:48.975Z,21.90
2022-09-13T23:54:17.585Z,21.50
2022-09-13T23:56:46.031Z,21.80
2022-09-13T23:59:14.876Z,22.00
